createdAt,value
2023-05-05T00:02:15.651Z,2.77
2023-05-05T00:07:18.874Z,3.70
2023-05-05T00:12:24.445Z,2.77
2023-05-05T00:17:27.565Z,3.60
2023-05-05T00:22:33.379Z,3.30
2023-05-05T00:27:40.176Z,3.13
2023-05-05T00:32:44.056Z,2.53
2023-05-05T00:37:47.339Z,3.50
2023-05-05T00:42:52.424Z,4.77
2023-05-05T00:47:58.067Z,3.60
2023-05-05T00:53:03.282Z,3.63
2023-05-05T00:58:07.964Z,3.87
2023-05-05T01:03:12.952Z,2.93
2023-05-05T01:08:27.208Z,3.57
2023-05-05T01:13:42.825Z,3.17
2023-05-05T01:18:55.704Z,3.57
2023-05-05T01:24:32.521Z,3.57
2023-05-05T01:30:03.476Z,3.50
2023-05-05T01:35:15.317Z,2.80
2023-05-05T01:40:23.773Z,3.53
2023-05-05T01:45:31.319Z,2.63
2023-05-05T01:50:37.041Z,3.43
2023-05-05T01:55:41.739Z,3.70
2023-05-05T02:00:45.537Z,3.43
2023-05-05T02:05:51.217Z,3.10
2023-05-05T02:10:56.708Z,4.63
2023-05-05T02:16:00.752Z,3.97
2023-05-05T02:21:05.657Z,3.53
2023-05-05T02:26:11.443Z,2.90
2023-05-05T02:31:17.035Z,2.60
2023-05-05T02:36:23.756Z,2.70
2023-05-05T02:41:29.522Z,3.30
2023-05-05T02:46:33.705Z,2.87
2023-05-05T02:51:38.292Z,3.47
2023-05-05T02:56:44.168Z,2.40
2023-05-05T03:01:57.984Z,3.40
2023-05-05T03:07:11.756Z,2.10
2023-05-05T03:12:21.022Z,3.77
2023-05-05T03:17:26.097Z,3.00
2023-05-05T03:22:31.154Z,3.10
2023-05-05T03:27:34.342Z,2.93
2023-05-05T03:32:37.582Z,3.43
2023-05-05T03:37:42.173Z,3.07
2023-05-05T03:42:45.279Z,3.60
2023-05-05T03:47:48.499Z,3.37
2023-05-05T03:52:52.978Z,3.50
2023-05-05T03:57:56.381Z,4.67
2023-05-05T04:03:00.651Z,3.83
2023-05-05T04:08:05.875Z,4.10
2023-05-05T04:13:09.524Z,4.00
2023-05-05T04:18:12.705Z,3.23
2023-05-05T04:23:17.278Z,3.97
2023-05-05T04:28:21.792Z,3.77
2023-05-05T04:33:25.926Z,4.40
2023-05-05T04:38:30.464Z,4.00
2023-05-05T04:43:33.710Z,3.50
2023-05-05T04:48:37.993Z,4.40
2023-05-05T04:53:42.489Z,5.17
2023-05-05T04:58:45.777Z,3.60
2023-05-05T05:03:48.919Z,3.77
2023-05-05T05:08:53.460Z,3.03
2023-05-05T05:13:56.567Z,3.87
2023-05-05T05:19:01.762Z,4.23
2023-05-05T05:24:06.879Z,4.40
2023-05-05T05:29:09.996Z,4.60
2023-05-05T05:34:13.175Z,4.27
2023-05-05T05:39:17.687Z,3.70
2023-05-05T05:44:20.846Z,5.80
2023-05-05T05:49:23.946Z,4.97
2023-05-05T05:54:28.448Z,5.17
2023-05-05T05:59:32.166Z,4.83
2023-05-05T06:04:35.802Z,5.60
2023-05-05T06:09:40.673Z,4.90
2023-05-05T06:14:44.411Z,5.50
2023-05-05T06:19:47.907Z,8.03
2023-05-05T06:24:52.676Z,9.87
2023-05-05T06:29:55.927Z,5.53
2023-05-05T06:34:59.012Z,6.10
2023-05-05T06:40:03.587Z,5.93
2023-05-05T06:45:07.691Z,6.27
2023-05-05T06:50:11.691Z,6.57
2023-05-05T06:55:17.044Z,6.33
2023-05-05T07:00:22.171Z,5.77
2023-05-05T07:05:25.266Z,6.67
2023-05-05T07:10:29.795Z,6.87
2023-05-05T07:15:32.923Z,7.10
2023-05-05T07:20:36.031Z,7.50
2023-05-05T07:25:40.713Z,7.60
2023-05-05T07:30:43.886Z,7.67
2023-05-05T07:35:47.107Z,8.57
2023-05-05T07:40:51.628Z,9.27
2023-05-05T07:45:55.319Z,11.70
2023-05-05T07:50:58.612Z,10.53
2023-05-05T07:56:03.316Z,10.67
2023-05-05T08:01:10.770Z,9.77
2023-05-05T08:06:16.744Z,8.53
2023-05-05T08:11:21.702Z,9.07
2023-05-05T08:16:25.041Z,7.97
2023-05-05T08:21:28.556Z,8.20
2023-05-05T08:26:33.027Z,7.97
2023-05-05T08:31:38.077Z,8.40
2023-05-05T08:36:41.234Z,8.47
2023-05-05T08:41:45.838Z,7.77
2023-05-05T08:46:50.374Z,7.60
2023-05-05T08:51:55.366Z,7.50
2023-05-05T08:57:03.038Z,7.37
2023-05-05T09:02:08.561Z,7.33
2023-05-05T09:07:11.848Z,6.50
2023-05-05T09:12:18.409Z,7.53
2023-05-05T09:17:25.717Z,5.73
2023-05-05T09:22:35.035Z,5.77
2023-05-05T09:27:43.587Z,5.30
2023-05-05T09:32:48.323Z,5.50
2023-05-05T09:37:51.533Z,6.67
2023-05-05T09:43:03.456Z,5.40
2023-05-05T09:48:07.505Z,5.63
2023-05-05T09:53:11.853Z,6.53
2023-05-05T09:58:26.458Z,5.53
2023-05-05T10:03:29.626Z,6.23
2023-05-05T10:08:34.270Z,5.00
2023-05-05T10:13:42.008Z,5.70
2023-05-05T10:18:48.826Z,4.80
2023-05-05T10:23:58.575Z,4.87
2023-05-05T10:29:05.218Z,4.27
2023-05-05T10:34:12.184Z,4.03
2023-05-05T10:39:17.889Z,4.30
2023-05-05T10:44:22.937Z,3.53
2023-05-05T10:49:34.327Z,4.60
2023-05-05T10:54:44.345Z,4.00
2023-05-05T10:59:48.812Z,4.70
2023-05-05T11:05:09.291Z,4.43
2023-05-05T11:10:14.078Z,3.70
2023-05-05T11:15:41.633Z,3.83
2023-05-05T11:21:18.753Z,3.07
2023-05-05T11:26:52.426Z,2.90
2023-05-05T11:32:15.767Z,3.40
2023-05-05T11:37:18.992Z,2.40
2023-05-05T11:42:25.923Z,3.57
2023-05-05T11:47:32.555Z,3.13
2023-05-05T11:52:35.822Z,3.47
2023-05-05T11:57:39.258Z,5.87
2023-05-05T12:02:44.043Z,2.97
2023-05-05T12:07:47.511Z,3.43
2023-05-05T12:12:51.026Z,3.40
2023-05-05T12:17:57.274Z,3.53
2023-05-05T12:23:02.731Z,3.90
2023-05-05T12:28:07.359Z,4.93
2023-05-05T12:33:12.178Z,3.53
2023-05-05T12:38:17.445Z,4.30
2023-05-05T12:43:31.461Z,3.27
2023-05-05T12:48:38.040Z,3.40
2023-05-05T12:53:41.354Z,3.50
2023-05-05T12:58:50.530Z,3.40
2023-05-05T13:04:14.751Z,3.30
2023-05-05T13:09:25.016Z,4.67
2023-05-05T13:14:28.072Z,3.30
2023-05-05T13:19:34.898Z,3.27
2023-05-05T13:24:50.978Z,4.73
2023-05-05T13:29:55.158Z,3.20
2023-05-05T13:34:59.629Z,3.60
2023-05-05T13:40:03.294Z,4.10
2023-05-05T13:45:07.409Z,3.53
2023-05-05T13:50:12.836Z,6.30
2023-05-05T13:55:16.091Z,3.60
2023-05-05T14:00:20.473Z,4.30
2023-05-05T14:05:24.981Z,4.67
2023-05-05T14:10:29.896Z,4.27
2023-05-05T14:15:33.711Z,4.50
2023-05-05T14:20:38.276Z,4.07
2023-05-05T14:25:41.491Z,4.03
2023-05-05T14:30:44.917Z,3.53
2023-05-05T14:35:49.517Z,3.27
2023-05-05T14:40:52.631Z,3.67
2023-05-05T14:45:55.955Z,3.00
2023-05-05T14:51:00.611Z,2.93
2023-05-05T14:56:03.700Z,3.27
2023-05-05T15:01:06.982Z,5.07
2023-05-05T15:06:11.481Z,4.00
2023-05-05T15:11:14.859Z,2.80
2023-05-05T15:16:17.994Z,4.50
2023-05-05T15:21:22.530Z,3.10
2023-05-05T15:26:26.639Z,2.50
2023-05-05T15:31:31.877Z,2.50
2023-05-05T15:36:37.529Z,2.80
2023-05-05T15:41:40.694Z,2.17
2023-05-05T15:46:43.824Z,2.00
2023-05-05T15:51:48.665Z,2.17
2023-05-05T15:56:51.786Z,2.37
2023-05-05T16:01:54.896Z,2.90
2023-05-05T16:06:59.354Z,2.50
2023-05-05T16:12:02.689Z,2.73
2023-05-05T16:17:05.869Z,2.93
2023-05-05T16:22:10.398Z,2.87
2023-05-05T16:27:14.312Z,3.90
2023-05-05T16:32:17.401Z,4.20
2023-05-05T16:37:22.592Z,3.00
2023-05-05T16:42:25.966Z,2.70
2023-05-05T16:47:29.092Z,4.77
2023-05-05T16:52:33.672Z,3.13
2023-05-05T16:57:36.960Z,2.90
2023-05-05T17:02:40.048Z,3.17
2023-05-05T17:07:44.798Z,3.20
2023-05-05T17:12:48.022Z,3.40
2023-05-05T17:17:51.187Z,3.83
2023-05-05T17:22:55.815Z,3.17
2023-05-05T17:27:59.131Z,4.43
2023-05-05T17:33:02.373Z,3.13
2023-05-05T17:38:06.890Z,3.23
2023-05-05T17:43:09.973Z,3.17
2023-05-05T17:48:13.099Z,3.20
2023-05-05T17:53:17.657Z,3.10
2023-05-05T17:58:20.802Z,3.20
2023-05-05T18:03:24.124Z,3.40
2023-05-05T18:08:29.099Z,3.43
2023-05-05T18:13:32.394Z,3.13
2023-05-05T18:18:36.063Z,3.23
2023-05-05T18:23:41.270Z,3.27
2023-05-05T18:28:44.384Z,3.00
2023-05-05T18:33:47.912Z,3.03
2023-05-05T18:38:52.443Z,3.17
2023-05-05T18:43:55.557Z,3.40
2023-05-05T18:48:58.674Z,4.33
2023-05-05T18:54:03.238Z,3.10
2023-05-05T18:59:06.340Z,3.77
2023-05-05T19:04:22.572Z,3.73
2023-05-05T19:09:34.673Z,4.27
2023-05-05T19:14:37.818Z,3.93
2023-05-05T19:19:40.972Z,4.50
2023-05-05T19:24:45.526Z,3.30
2023-05-05T19:29:52.494Z,2.47
2023-05-05T19:34:56.521Z,2.27
2023-05-05T19:40:01.200Z,1.43
2023-05-05T19:45:04.554Z,1.73
2023-05-05T19:50:08.493Z,2.57
2023-05-05T19:55:13.879Z,3.37
2023-05-05T20:00:17.491Z,3.53
2023-05-05T20:05:20.731Z,4.00
2023-05-05T20:10:26.792Z,3.43
2023-05-05T20:15:31.299Z,3.30
2023-05-05T20:20:35.209Z,4.03
2023-05-05T20:25:39.850Z,5.97
2023-05-05T20:30:42.960Z,4.20
2023-05-05T20:35:46.214Z,4.53
2023-05-05T20:40:51.002Z,5.47
2023-05-05T20:45:54.132Z,4.57
2023-05-05T20:50:58.820Z,4.53
2023-05-05T20:56:03.796Z,3.37
2023-05-05T21:01:07.946Z,3.77
2023-05-05T21:06:11.120Z,3.40
2023-05-05T21:11:15.688Z,5.33
2023-05-05T21:16:18.878Z,2.40
2023-05-05T21:21:23.925Z,2.23
2023-05-05T21:26:28.419Z,2.43
2023-05-05T21:31:31.597Z,2.40
2023-05-05T21:36:34.784Z,2.93
2023-05-05T21:41:39.264Z,2.20
2023-05-05T21:46:42.554Z,2.50
2023-05-05T21:51:46.786Z,3.00
2023-05-05T21:56:51.275Z,3.13
2023-05-05T22:01:54.638Z,3.00
2023-05-05T22:06:57.906Z,3.17
2023-05-05T22:12:02.856Z,2.90
2023-05-05T22:17:06.275Z,2.70
2023-05-05T22:22:09.377Z,2.93
2023-05-05T22:27:13.854Z,3.73
2023-05-05T22:32:17.030Z,3.27
2023-05-05T22:37:22.878Z,2.90
2023-05-05T22:42:27.446Z,2.80
2023-05-05T22:47:30.984Z,2.93
2023-05-05T22:52:34.114Z,3.03
2023-05-05T22:57:38.630Z,3.07
2023-05-05T23:02:42.410Z,2.33
2023-05-05T23:07:45.542Z,2.90
2023-05-05T23:12:50.086Z,3.27
2023-05-05T23:17:53.328Z,5.17
2023-05-05T23:22:56.667Z,3.40
2023-05-05T23:28:01.164Z,3.07
2023-05-05T23:33:04.990Z,3.07
2023-05-05T23:38:08.076Z,3.17
2023-05-05T23:43:13.070Z,3.30
2023-05-05T23:48:16.392Z,3.53
2023-05-05T23:53:19.863Z,4.20
2023-05-05T23:58:24.689Z,3.37
